Stefan Beck

Chefscout - Union Berlin
3 Dez 2028
Sonntag
Verarbeitung

Persönlichkeit

Anpassungsfähigkeit (12) Ehrgeiz (2) Kontroverse (11) Loyalität (12) Druck (8) Professionalität (12) Fairness (14) Temperament (20)

Profil

Trainerstil Demokratisch
Lizenz Nationale B
Entschlossenheit 13
Menschenführung 5
Motivation 9
Disziplin 14
Arbeitszufriedenheit
100%
Ermüdung
0%
Rolle Chefscout
Gehalt 18.2K p/W
Vertrag 14.03.2029

Leistung

Verhalten Gut
Trainingseffektivität
56%
Spielerentwicklung
35%
Verletzungsprävention
55%
Taktische Umsetzung
70%

Letzte Ereignisse

Spieler begutachtet jetzt
Nahm an einer Scouting-Besprechung teil jetzt
Empfahl ein Transferziel jetzt
Spieler begutachtet jetzt
Spieler begutachtet jetzt
Spieler begutachtet jetzt
Spiel beobachtet 7T her
Spiel beobachtet 7T her

Aktuell beobachtet

214
Spieler Verein Status Fähigkeit Vertrauen Beobachtet Zuletzt beobachtet Letzte Stimme
Mihajlo Cvetković Club Brugge Aktiv 138 / 136 40% 2 30.11.2028 -
Alex Verón Vélez Aktiv 120 / 121 40% 6 30.11.2028 -
Vakhtang Salia Shonan Bellmare Aktiv 101 / 101 40% 2 30.11.2028 -
Santiago Segovia Rosario Central Aktiv 114 / 114 40% 5 29.11.2028 -
Christ Wawa Gefle Aktiv 111 / 100 40% 5 29.11.2028 -
Gilberto Mora Guadalajara Aktiv 137 / 141 40% 2 29.11.2028 -
Ayyoub Bouaddi Stoke City Aktiv 154 / 154 40% 2 28.11.2028 -
Hugo Camberos Dorados Aktiv 138 / 131 40% 2 28.11.2028 -
Ryan McAidoo Oldham Athletic Aktiv 133 / 126 40% 1 28.11.2028 -
Babis Kostoulas Oxford United Aktiv 152 / 157 40% 5 27.11.2028 -
Álvaro Montoro Botafogo Aktiv 142 / 127 40% 7 27.11.2028 -
Geovany Quenda Watford Aktiv 157 / 161 40% 6 22.11.2028 -
Julian Hall Real Salt Lake Aktiv 108 / 127 40% 3 22.11.2028 -
Sean Steur Rotherham United Aktiv 129 / 129 40% 3 22.11.2028 -
Luka Andrade Montevideo City Torque Aktiv 101 / 121 40% 5 19.11.2028 -
Celías Ingenthron Platense Aktiv 111 / 118 40% 3 16.11.2028 -
Lisandro Piñero Banfield Aktiv 128 / 137 40% 6 16.11.2028 -
Isaque Obolon Aktiv 131 / 128 40% 1 16.11.2028 -
Christos Mouzakitis Hull City Aktiv 144 / 143 40% 8 15.11.2028 -
Martín Jiménez Iquique Aktiv 108 / 103 40% 3 15.11.2028 -
Lennart Karl TSG Hoffenheim Aktiv 152 / 151 40% 2 12.11.2028 -
Matías Arias Vélez Aktiv 122 / 112 40% 3 12.11.2028 -
Mateus Mané Burnley Aktiv 147 / 156 40% 4 10.11.2028 -
Mikey Moore Stockport County Aktiv 139 / 151 40% 5 10.11.2028 -
Rio Ngumoha Plymouth Argyle Aktiv 142 / 158 40% 4 09.11.2028 -
Trey Nyoni Rotherham United Aktiv 143 / 158 40% 6 08.11.2028 -
Olivier Mambwa Young Boys Aktiv 111 / 118 40% 7 07.11.2028 -
Jacob Peter Hödl Sturm Graz Aktiv 130 / 135 40% 3 07.11.2028 -
Yan Diomandé Oviedo Aktiv 160 / 170 40% 4 06.11.2028 -
Luis Otávio Orlando City Aktiv 116 / 113 40% 2 06.11.2028 -
Matias Siltanen Malmo FF Aktiv 136 / 128 40% 2 05.11.2028 -
Harry Gray Harrogate Town Aktiv 137 / 142 40% 2 05.11.2028 -
Ethan Nwaneri Arsenal Aktiv 159 / 163 40% 3 03.11.2028 -
Estêvão Portsmouth Aktiv 152 / 162 40% 1 02.11.2028 -
Johannes Moser Sturm Graz Aktiv 111 / 124 40% 3 01.11.2028 -
Andrija Maksimović VfL Wolfsburg Aktiv 144 / 129 40% 1 24.10.2028 -
Dieguinho Grêmio Aktiv 114 / 120 40% 1 23.10.2028 -
Pablo Lago Juventud Aktiv 109 / 103 40% 2 21.10.2028 -
Valentino Huertas Morón Aktiv 104 / 103 40% 3 20.10.2028 -
Harrison Armstrong Ipswich Town Aktiv 141 / 146 40% 1 17.10.2028 -
Joris Boguo Wolfsberger AC Aktiv 106 / 111 40% 1 15.10.2028 -
Romelle Donovan Brentford Aktiv 139 / 136 40% 5 13.10.2028 -
Sebastian Rodriguez Houston Dynamo Aktiv 118 / 119 40% 1 12.10.2028 -
Ibrahim Mbaye Queens Park Rangers Aktiv 143 / 148 40% 1 08.10.2028 -
Lucca São Paulo Aktiv 118 / 122 40% 1 02.10.2028 -
Tahiel Peralta Racing Club Aktiv 116 / 118 40% 1 12.09.2028 -
Myles Lewis-Skelly Arsenal Aktiv 154 / 170 40% 1 12.09.2028 -
Markus Wæhler Lillestrom Aktiv 104 / 121 40% 1 06.09.2028 -
Jorge Rivaldo Real Cartagena Verhandlung 115 / 125 40% 1 29.08.2028 -
Élohim Kaboré Hammarby Aktiv 115 / 111 40% 1 29.08.2028 -
Erik Flataker AIK Aktiv 116 / 112 40% 1 29.08.2028 -
Alejo Veliz Bahia Aktiv 134 / 141 40% 1 21.08.2028 -
Agustín Kahl Fenix Aktiv 102 / 106 40% 1 21.08.2028 -
Alphadjo Cissé Lecce Aktiv 136 / 147 40% 1 14.08.2028 -
Aarón Ochoa Málaga Verloren 130 / 132 40% 1 14.08.2028 -
Pau Cubarsí Real Sociedad Aktiv 160 / 159 40% 10 25.07.2028 -
Cheveyo Tsawa Club Brugge Aktiv 136 / 143 40% 2 25.07.2028 -
Aidomo Emakhu Oxford United Aktiv 130 / 121 40% 1 10.07.2028 -
Luca Williams-Barnett Walsall Aktiv 127 / 138 40% 1 27.06.2028 -
Giannis Konstantelias Borussia Dortmund Verloren 154 / 139 69% 1 19.06.2028 -
Chupete Málaga Aktiv 134 / 132 40% 2 12.06.2028 -
Richard Koné Queens Park Rangers Aktiv 129 / 127 40% 2 12.06.2028 -
Bernardo Lima Porto Aktiv 112 / 114 40% 7 07.06.2028 -
Yassir Zabiri Stade Rennais Aktiv 140 / 145 40% 1 31.05.2028 -
Dale Taylor Blackpool Aktiv 113 / 117 40% 1 31.05.2028 -
Ayden Heaven Portsmouth Aktiv 146 / 149 40% 11 30.05.2028 -
Jorge Salinas Racing Santander Aktiv 138 / 135 40% 6 30.05.2028 -
Marc Bernal Sevilla Aktiv 143 / 146 40% 5 29.05.2028 -
Olivier Leroux Mouscron Aktiv 98 / 101 40% 1 29.05.2028 -
Honest Ahanor Atalanta Aktiv 138 / 149 40% 8 26.05.2028 -
Héctor Fort Real Sociedad Aktiv 142 / 139 40% 9 26.05.2028 -
Illaijh de Ruijter ADO Den Haag Aktiv 118 / 123 40% 2 26.05.2028 -
Adrián Niño Málaga Aktiv 132 / 135 40% 1 26.05.2028 -
Ante Crnac Bristol Rovers Aktiv 132 / 127 40% 1 26.05.2028 -
Martim Cunha Porto Aktiv 105 / 107 40% 4 25.05.2028 -
Mert Kömür FC Augsburg Verloren 124 / 128 40% 1 24.05.2028 -
Leo Castledine Middlesbrough Aktiv 138 / 142 40% 6 23.05.2028 -
William Osula Wrexham Aktiv 136 / 142 40% 1 23.05.2028 -
Kiani Inge Groningen Aktiv 117 / 122 40% 2 21.05.2028 -
Semih Kılıçsoy Besiktas Aktiv 123 / 143 40% 1 21.05.2028 -
Andrey Ivlev Nizhniy Novgorod Aktiv 100 / 133 40% 1 16.05.2028 -
Daniel Banjaqui Benfica Aktiv 128 / 131 40% 5 15.05.2028 -
Josh Nichols Oldham Athletic Aktiv 127 / 131 40% 6 14.05.2028 -
Riquelme Thompson-Jones Accrington Stanley Aktiv 109 / 116 40% 2 12.05.2028 -
Givairo Read Feyenoord Aktiv 150 / 155 40% 10 11.05.2028 -
Jan Bürger Northampton Town Aktiv 118 / 123 40% 9 08.05.2028 -
Ryan Kavuma-McQueen Accrington Stanley Aktiv 122 / 137 40% 3 01.05.2028 -
Mohamed-Ali Cho Hull City Aktiv 140 / 140 40% 1 01.05.2028 -
Jorthy Mokio ADO Den Haag Aktiv 126 / 143 40% 4 24.04.2028 -
Andrija Bulatović Chamois Niortais Aktiv 125 / 134 40% 2 21.04.2028 -
Kauã Moraes Flamengo Aktiv 130 / 139 40% 5 15.04.2028 -
Rocco Vata Watford Aktiv 127 / 136 40% 5 10.04.2028 -
Josh Acheampong Everton Aktiv 149 / 146 40% 7 10.04.2028 -
Tyreece Campbell Charlton Athletic Aktiv 121 / 120 40% 1 10.04.2028 -
Igor Tyjon Barrow AFC Aktiv 114 / 126 40% 2 06.04.2028 -
Wandile Duba ASO Chlef Aktiv 111 / 121 40% 1 06.04.2028 -
Izan Merino Málaga Aktiv 127 / 133 40% 3 27.03.2028 -
Giovanni Leoni Lincoln City Aktiv 142 / 147 40% 2 10.03.2028 -
Mateo Retegui Atlético Madrid Aktiv 156 / 156 68% 1 01.01.2028 -
Toni Fruk Talleres Aktiv 132 / 133 66% 1 01.01.2028 -
William Gomes Porto Aktiv 144 / 146 40% 2 23.06.2027 -
Caleb Yirenkyi Coventry City Aktiv 136 / 149 40% 3 14.06.2027 -
Alexander Prass TSG Hoffenheim Aktiv 130 / 141 69% 1 03.06.2027 -
Guillaume Restes Toulouse FC Aktiv 145 / 146 40% 3 02.06.2027 -
Juan Diego Castillo Vitoria Guimaraes Aktiv 127 / 115 40% 1 02.06.2027 -
Pedro de la Vega Columbus Crew Aktiv 133 / 134 66% 1 01.06.2027 -
Mio Backhaus SC Freiburg Aktiv 130 / 136 40% 4 30.05.2027 -
Can Uzun Eintracht Frankfurt Aktiv 150 / 152 40% 8 30.05.2027 -
Daniel Awuni Aduana Stars Aktiv 106 / 98 40% 5 30.05.2027 -
Kirill Glebov CSKA Moscow Aktiv 118 / 113 40% 8 29.05.2027 -
Lander Astiazarán Real Sociedad Aktiv 107 / 111 40% 4 26.05.2027 -
Jonas Urbig Bayern Munich Aktiv 153 / 138 40% 5 25.05.2027 -
James Trafford Leeds United Aktiv 145 / 144 40% 4 25.05.2027 -
Deniz Ertaş Konyaspor Aktiv 119 / 119 40% 2 25.05.2027 -
Jonathan Asp-Jensen Deportivo La Coruña Aktiv 118 / 132 40% 1 25.05.2027 -
Samuel Soares Benfica Aktiv 129 / 133 40% 2 24.05.2027 -
Monty Batlhabane Polokwane City Aktiv 97 / 109 40% 3 21.05.2027 -
Ibrahim Maza Bayer Leverkusen Aktiv 146 / 154 40% 3 21.05.2027 -
Gabriele Bertolini Vicenza Aktiv 101 / 105 40% 1 21.05.2027 -
Yussif Saidu Zaragoza Aktiv 123 / 129 40% 4 20.05.2027 -
Sindre Walle Egeli Udinese Aktiv 124 / 143 40% 7 19.05.2027 -
Gorka Gorosabel Real Sociedad Aktiv 101 / 113 40% 5 19.05.2027 -
Samuele di Benedetto Twente Aktiv 115 / 117 40% 7 17.05.2027 -
Othmane Maamma Watford Aktiv 131 / 122 40% 8 15.05.2027 -
Manu Rodríguez Gijón Aktiv 103 / 103 40% 2 12.05.2027 -
Gianluca Prestianni Benfica Verloren 138 / 147 40% 1 11.05.2027 -
Marvin Keller Chelsea Aktiv 140 / 135 40% 4 10.05.2027 -
Kilian Nikiéma ADO Den Haag Aktiv 120 / 117 40% 2 10.05.2027 -
Kauã Santos Eintracht Frankfurt Aktiv 136 / 150 40% 2 10.05.2027 -
Mohamadou Kanté Crawley Town Aktiv 111 / 126 40% 6 04.05.2027 -
Antonio Gomis Vizela Aktiv 124 / 127 40% 3 04.05.2027 -
Doğan Alemdar Basaksehir Aktiv 107 / 118 40% 1 03.05.2027 -
Olívio Tomé Benfica Aktiv 114 / 117 40% 3 02.05.2027 -
David Mella Deportivo La Coruña Aktiv 137 / 142 40% 7 02.05.2027 -
Robin Roefs Sunderland Aktiv 145 / 143 40% 4 01.05.2027 -
Chemsdine Talbi Sunderland Aktiv 146 / 150 40% 10 30.04.2027 -
Sławomir Abramowicz Jagiellonia Aktiv 126 / 132 40% 2 27.04.2027 -
Nikolaus Wurmbrand Girona Aktiv 114 / 124 40% 4 22.04.2027 -
Leandro Brey Boca Juniors Aktiv 124 / 137 40% 2 22.04.2027 -
Aitor Fraga Real Sociedad Aktiv 131 / 123 40% 1 22.04.2027 -
Yusi Alavés Aktiv 127 / 136 40% 3 20.04.2027 -
Melker Ellborg Sunderland Aktiv 128 / 130 40% 2 20.04.2027 -
Josh Keeley Luton Town Aktiv 133 / 135 40% 4 15.04.2027 -
Jan Virgili Club Brugge Aktiv 131 / 126 40% 6 13.04.2027 -
Lovro Zvonarek Estrela da Amadora Aktiv 116 / 137 40% 1 13.04.2027 -
James Dornelly Peterborough United Aktiv 109 / 105 40% 4 07.04.2027 -
Zion Suzuki Aston Villa Aktiv 139 / 146 40% 1 07.04.2027 -
Karl Hein Werder Bremen Aktiv 150 / 136 40% 3 02.04.2027 -
Saïd El Mala Köln Aktiv 141 / 134 40% 3 28.03.2027 -
Oliver Dovin Coventry City Aktiv 128 / 134 40% 1 28.03.2027 -
Dehmaine Tabibou FC Nantes Aktiv 120 / 131 40% 2 23.03.2027 -
Malick Fofana Sunderland Aktiv 144 / 139 40% 2 19.03.2027 -
Antonio Nusa RB Leipzig Aktiv 153 / 139 40% 4 18.03.2027 -
Antoni Milambo Brentford Aktiv 142 / 133 40% 3 16.03.2027 -
Nico O'Reilly Manchester City Aktiv 158 / 166 40% 4 08.03.2027 -
Mathys Tel Tottenham Aktiv 141 / 156 40% 1 04.03.2027 -
Calum Agius Crewe Alexandra Aktiv 87 / 89 40% 2 26.02.2027 -
Veljko Radosavljević Cukaricki Aktiv 114 / 89 40% 1 23.02.2027 -
Lewis Hall Newcastle United Aktiv 151 / 152 40% 1 26.01.2027 -
Tino Livramento Newcastle United Aktiv 152 / 146 40% 1 26.01.2027 -
Wilson Isidor Sunderland Aktiv 129 / 135 40% 3 19.01.2027 -
Moisés Caicedo Chelsea Aktiv 168 / 177 40% 1 07.01.2027 -
Niklas Hedl Rapid Wien Aktiv 132 / 132 40% 6 04.01.2027 -
Andrés Martín Racing Santander Aktiv 138 / 129 40% 5 31.12.2026 -
Niklas Steffen Thun Aktiv 126 / 114 40% 5 30.12.2026 -
Murphy Cooper Plymouth Argyle Aktiv 107 / 110 40% 2 28.12.2026 -
Juan-José Perea Zurich Aktiv 116 / 113 40% 6 25.12.2026 -
João Pedro Chelsea Aktiv 153 / 150 40% 2 24.12.2026 -
Roberto Fernández Braga Aktiv 135 / 146 40% 3 23.12.2026 -
Yehvann Diouf OGC Nice Aktiv 142 / 146 40% 1 23.12.2026 -
Ferran Torres Paris Saint-Germain Aktiv 162 / 153 40% 2 20.12.2026 -
Georginio Rutter Brighton Aktiv 139 / 140 40% 1 20.12.2026 -
Yorbe Vertessen Red Bull Salzburg Aktiv 124 / 118 40% 6 19.12.2026 -
Rayan Philippe Hamburger SV Aktiv 130 / 138 40% 1 15.12.2026 -
Rafael Navarro Famalicao Aktiv 128 / 116 40% 1 14.12.2026 -
Diego López Valencia Aktiv 131 / 147 40% 1 12.12.2026 -
Philippe Keny Zurich Aktiv 124 / 120 40% 1 11.12.2026 -
Peque Real Sociedad Aktiv 143 / 134 40% 1 10.12.2026 -
Sota Kitano Red Bull Salzburg Aktiv 125 / 125 40% 6 08.12.2026 -
Petter Nosa Dahl Rapid Wien Aktiv 123 / 113 40% 1 08.12.2026 -
Christantus Uche Getafe Aktiv 136 / 142 40% 3 07.12.2026 -
Isaac Romero Sevilla Aktiv 144 / 136 40% 2 04.12.2026 -
Dušan Vlahović Hamburger SV Aktiv 163 / 150 40% 3 30.11.2026 -
Iliman N'Diaye Everton Aktiv 158 / 148 40% 5 30.11.2026 -
Igor Nikić Mirandés Aktiv 120 / 120 40% 1 28.11.2026 -
Adam Hložek TSG Hoffenheim Aktiv 129 / 145 40% 2 25.11.2026 -
Fábio Silva Borussia Dortmund Aktiv 141 / 148 40% 1 25.11.2026 -
Maurits Kjærgaard Red Bull Salzburg Aktiv 123 / 131 40% 6 24.11.2026 -
Julian von Moos Grasshopper Aktiv 115 / 120 40% 3 22.11.2026 -
Darian Maleš Young Boys Aktiv 123 / 128 40% 3 20.11.2026 -
Srđan Hrstić Altach Aktiv 105 / 110 40% 2 18.11.2026 -
Ibrahim Salah Basel Aktiv 129 / 126 40% 1 14.11.2026 -
Cody Gakpo Liverpool Aktiv 164 / 154 40% 1 12.11.2026 -
Jonmi Magunagoitia Eibar Aktiv 122 / 115 40% 1 11.11.2026 -
Mads Hermansen West Ham United Aktiv 142 / 136 40% 1 10.11.2026 -
Nathan Trott Cardiff City Aktiv 127 / 122 40% 2 06.11.2026 -
Matteo di Giusto Luzern Aktiv 132 / 128 40% 2 04.11.2026 -
Ayo Akinola Vaduz Aktiv 106 / 118 40% 1 03.11.2026 -
Sinan Karweina Luzern Aktiv 116 / 108 40% 1 30.10.2026 -
Ilyas Chouaref Sion Aktiv 115 / 123 40% 2 28.10.2026 -
Sanel Šaljić Austria Wien Aktiv 120 / 132 40% 1 26.10.2026 -
Lukas Gütlbauer Wolfsberger AC Aktiv 121 / 116 40% 1 25.10.2026 -
Samuel Marques Grasshopper Aktiv 112 / 126 40% 1 22.10.2026 -
Ilyas Ansah Hull City Aktiv 134 / 128 40% 1 22.10.2026 -
Joseph Leclercq Tottenham Aktiv 156 / 144 40% 1 19.10.2026 -
Héctor Holguín Morelia Aktiv 106 / 114 40% 1 12.10.2026 -
Caoimhin Kelleher Brentford Aktiv 140 / 150 40% 1 10.10.2026 -
Martín Ojeda Orlando City Aktiv 136 / 129 40% 1 06.10.2026 -
Corsin Konietzke St. Gallen Aktiv 113 / 116 40% 1 14.09.2026 -
Valentino Ilsanker Mattersburg Aktiv 105 / 115 40% 1 14.09.2026 -
João Neves Paris Saint-Germain Aktiv 164 / 170 40% 2 11.09.2026 -
Pau Navarro Villarreal Aktiv 132 / 153 40% 1 07.09.2026 -
Nicolás Capaldo Hamburger SV Aktiv 120 / 129 65% 1 24.08.2026 Befürworten
Dejan Radonjić SV Ried Aktiv 105 / 118 40% 1 10.08.2026 -